Aérodrome :
LOGIN :

S'inscrire | Disclaimer

   EN    FR    IT 

 










Légende :    VFR   VFR Marginal   IFR   IFR Intensif   IFR Très Intensif
Visi : 
Plafond : 
>= 8 km
>= 3000ft
5 à 8 km
1000 à 3000 ft
1500m à 5 km
500 à 1000 ft
800 à 1500m
200 à 500 ft
< 800m
< 200 ft
Symboles :   Orages  Brouillard  Fortes neiges  Fortes précipitations  Vent > 20 kt
SIGMETs :   Divers  Orages  Givrage  Turbulence  Onde Orograph.  Cendres Volcan.







- Altitude de l'aérodrome : 1367 ft
- Code IATA : FDH


EDNY - Friedrichshafen

DERNIER METAR :
  • 221750Z 07003KT 9999 -RA FEW076 16/15 Q1015 RERA

METARs EXPIRÉS :
  • 221720Z 34003KT 9999 -RA FEW042 SCT073 17/15 Q1016
  • 221650Z 36005KT 9999 -RA FEW039 BKN061 19/16 Q1015
  • 221620Z VRB05KT 9999 FEW040 BKN055 BKN072 22/14 Q1015
  • 221550Z 18006KT 9999 FEW040 BKN055 OVC073 22/14 Q1015
  • 221520Z 18005KT 9999 FEW040 BKN055 22/14 Q1015

TAF TAF EDNY
Valide du 22 à 18h jusqu'au 23 à 18h UTC


221700Z 2218/2318 VRB03KT 9999 BKN040
TEMPO 2218/2224 SHRA BKN030CB
PROB30
TEMPO 2302/2306 4000 BR BKN008
PROB30
TEMPO 2312/2316 SHRA SCT030TCU
Pas de NOTAMs connus pour ce terrain.



MET'MAP, la Météo Aéronautique d'un coup d'oeil ! - Copyright ORBIFLY Décembre 2007 - Disclaimer

ORBIFLY MET'MAP TEAM :

Programmation & Développement : Alexandra Zaïnal
Conception & Développement : Baudouin d'Aumeries
Co-Programmation & Développement : Marc-Olivier Méhu
Soutien technique & logistique : Manuel Goepfert

Contact : metmap@orbifly.com




SOURCES & CREDITS :

   NOAA